sensor_id;sensor_type;location;lat;lon;timestamp;temperature;humidity
74792;SHT30;63319;46.046;17.802;2023-06-04T00:03:00;24.24;58.43
74792;SHT30;63319;46.046;17.802;2023-06-04T00:06:03;24.24;58.39
74792;SHT30;63319;46.046;17.802;2023-06-04T00:09:06;24.24;58.22
74792;SHT30;63319;46.046;17.802;2023-06-04T00:12:08;24.21;58.56
74792;SHT30;63319;46.046;17.802;2023-06-04T00:15:13;24.23;58.58
74792;SHT30;63319;46.046;17.802;2023-06-04T00:18:16;24.17;58.54
74792;SHT30;63319;46.046;17.802;2023-06-04T00:21:19;24.20;58.53
74792;SHT30;63319;46.046;17.802;2023-06-04T00:24:22;24.18;58.43
74792;SHT30;63319;46.046;17.802;2023-06-04T00:27:25;24.18;58.38
74792;SHT30;63319;46.046;17.802;2023-06-04T00:30:28;24.17;58.32
74792;SHT30;63319;46.046;17.802;2023-06-04T00:33:31;24.16;58.53
74792;SHT30;63319;46.046;17.802;2023-06-04T00:36:34;24.16;58.54
74792;SHT30;63319;46.046;17.802;2023-06-04T00:39:37;24.16;58.36
74792;SHT30;63319;46.046;17.802;2023-06-04T00:42:40;24.13;58.45
74792;SHT30;63319;46.046;17.802;2023-06-04T00:45:42;24.14;58.49
74792;SHT30;63319;46.046;17.802;2023-06-04T00:48:45;24.14;58.56
74792;SHT30;63319;46.046;17.802;2023-06-04T00:51:48;24.13;58.70
74792;SHT30;63319;46.046;17.802;2023-06-04T00:54:52;24.13;58.68
74792;SHT30;63319;46.046;17.802;2023-06-04T00:57:57;24.10;58.43
74792;SHT30;63319;46.046;17.802;2023-06-04T01:01:00;24.10;58.42
74792;SHT30;63319;46.046;17.802;2023-06-04T01:04:16;24.09;58.54
74792;SHT30;63319;46.046;17.802;2023-06-04T01:07:21;24.09;58.26
74792;SHT30;63319;46.046;17.802;2023-06-04T01:10:24;24.09;58.60
74792;SHT30;63319;46.046;17.802;2023-06-04T01:13:27;24.06;58.68
74792;SHT30;63319;46.046;17.802;2023-06-04T01:16:36;24.06;58.35
74792;SHT30;63319;46.046;17.802;2023-06-04T01:26:36;24.04;58.61
74792;SHT30;63319;46.046;17.802;2023-06-04T01:29:42;24.02;58.27
74792;SHT30;63319;46.046;17.802;2023-06-04T01:32:45;24.00;58.41
74792;SHT30;63319;46.046;17.802;2023-06-04T01:35:49;24.02;58.47
74792;SHT30;63319;46.046;17.802;2023-06-04T01:38:52;24.02;58.37
74792;SHT30;63319;46.046;17.802;2023-06-04T01:41:55;24.00;58.39
74792;SHT30;63319;46.046;17.802;2023-06-04T01:44:58;23.96;58.37
74792;SHT30;63319;46.046;17.802;2023-06-04T01:48:02;23.97;58.22
74792;SHT30;63319;46.046;17.802;2023-06-04T01:51:05;23.97;58.55
74792;SHT30;63319;46.046;17.802;2023-06-04T01:54:09;23.94;58.49
74792;SHT30;63319;46.046;17.802;2023-06-04T01:57:12;23.96;58.33
74792;SHT30;63319;46.046;17.802;2023-06-04T02:00:15;23.93;58.40
74792;SHT30;63319;46.046;17.802;2023-06-04T02:03:17;23.93;58.05
74792;SHT30;63319;46.046;17.802;2023-06-04T02:06:21;23.92;58.55
74792;SHT30;63319;46.046;17.802;2023-06-04T02:09:24;23.92;58.42
74792;SHT30;63319;46.046;17.802;2023-06-04T02:12:27;23.94;58.33
74792;SHT30;63319;46.046;17.802;2023-06-04T02:15:31;23.90;58.41
74792;SHT30;63319;46.046;17.802;2023-06-04T02:18:34;23.90;58.23
74792;SHT30;63319;46.046;17.802;2023-06-04T02:21:38;23.90;58.49
74792;SHT30;63319;46.046;17.802;2023-06-04T02:24:40;23.87;58.29
74792;SHT30;63319;46.046;17.802;2023-06-04T02:27:44;23.87;58.01
74792;SHT30;63319;46.046;17.802;2023-06-04T02:30:47;23.87;58.41
74792;SHT30;63319;46.046;17.802;2023-06-04T02:33:50;23.86;58.38
74792;SHT30;63319;46.046;17.802;2023-06-04T02:36:53;23.86;58.09
74792;SHT30;63319;46.046;17.802;2023-06-04T02:39:56;23.87;58.26
74792;SHT30;63319;46.046;17.802;2023-06-04T02:42:59;23.86;58.01
74792;SHT30;63319;46.046;17.802;2023-06-04T02:46:02;23.85;58.13
74792;SHT30;63319;46.046;17.802;2023-06-04T02:49:05;23.83;58.31
74792;SHT30;63319;46.046;17.802;2023-06-04T02:52:08;23.83;58.06
74792;SHT30;63319;46.046;17.802;2023-06-04T02:55:11;23.83;58.25
74792;SHT30;63319;46.046;17.802;2023-06-04T02:58:17;23.82;58.02
74792;SHT30;63319;46.046;17.802;2023-06-04T03:01:22;23.80;58.15
74792;SHT30;63319;46.046;17.802;2023-06-04T03:04:25;23.82;58.04
74792;SHT30;63319;46.046;17.802;2023-06-04T03:07:28;23.79;58.10
74792;SHT30;63319;46.046;17.802;2023-06-04T03:10:31;23.79;58.05
74792;SHT30;63319;46.046;17.802;2023-06-04T03:13:35;23.80;58.09
74792;SHT30;63319;46.046;17.802;2023-06-04T03:16:38;23.77;58.25
74792;SHT30;63319;46.046;17.802;2023-06-04T03:19:42;23.77;58.07
74792;SHT30;63319;46.046;17.802;2023-06-04T03:22:45;23.77;58.00
74792;SHT30;63319;46.046;17.802;2023-06-04T03:25:48;23.76;57.92
74792;SHT30;63319;46.046;17.802;2023-06-04T03:28:51;23.77;57.95
74792;SHT30;63319;46.046;17.802;2023-06-04T03:31:55;23.76;57.58
74792;SHT30;63319;46.046;17.802;2023-06-04T03:35:00;23.76;57.68
74792;SHT30;63319;46.046;17.802;2023-06-04T03:38:03;23.77;57.75
74792;SHT30;63319;46.046;17.802;2023-06-04T03:41:07;23.75;57.44
74792;SHT30;63319;46.046;17.802;2023-06-04T03:44:15;23.75;57.64
74792;SHT30;63319;46.046;17.802;2023-06-04T03:47:19;23.76;57.93
74792;SHT30;63319;46.046;17.802;2023-06-04T03:50:25;23.75;57.26
74792;SHT30;63319;46.046;17.802;2023-06-04T03:53:29;23.75;57.61
74792;SHT30;63319;46.046;17.802;2023-06-04T03:56:32;23.73;57.55
74792;SHT30;63319;46.046;17.802;2023-06-04T03:59:35;23.76;57.36
74792;SHT30;63319;46.046;17.802;2023-06-04T04:02:40;23.73;57.21
74792;SHT30;63319;46.046;17.802;2023-06-04T04:05:51;23.76;57.28
74792;SHT30;63319;46.046;17.802;2023-06-04T04:08:54;23.77;57.21
74792;SHT30;63319;46.046;17.802;2023-06-04T04:11:57;23.76;57.21
74792;SHT30;63319;46.046;17.802;2023-06-04T04:15:00;23.76;56.24
74792;SHT30;63319;46.046;17.802;2023-06-04T04:18:06;23.79;56.77
74792;SHT30;63319;46.046;17.802;2023-06-04T04:21:14;23.77;56.99
74792;SHT30;63319;46.046;17.802;2023-06-04T04:24:26;23.77;56.89
74792;SHT30;63319;46.046;17.802;2023-06-04T04:27:34;23.77;57.03
74792;SHT30;63319;46.046;17.802;2023-06-04T04:30:43;23.77;56.72
74792;SHT30;63319;46.046;17.802;2023-06-04T04:33:47;23.76;56.92
74792;SHT30;63319;46.046;17.802;2023-06-04T04:36:50;23.79;55.80
74792;SHT30;63319;46.046;17.802;2023-06-04T04:39:56;23.80;56.57
74792;SHT30;63319;46.046;17.802;2023-06-04T04:43:01;23.82;56.97
74792;SHT30;63319;46.046;17.802;2023-06-04T04:46:05;23.80;56.91
74792;SHT30;63319;46.046;17.802;2023-06-04T04:49:08;23.83;56.84
74792;SHT30;63319;46.046;17.802;2023-06-04T04:52:11;23.83;56.37
74792;SHT30;63319;46.046;17.802;2023-06-04T04:55:16;23.83;56.14
74792;SHT30;63319;46.046;17.802;2023-06-04T04:58:22;23.87;56.32
74792;SHT30;63319;46.046;17.802;2023-06-04T05:01:25;23.87;56.42
74792;SHT30;63319;46.046;17.802;2023-06-04T05:04:28;23.90;56.35
74792;SHT30;63319;46.046;17.802;2023-06-04T05:07:32;23.90;55.39
74792;SHT30;63319;46.046;17.802;2023-06-04T05:10:35;23.93;55.18
74792;SHT30;63319;46.046;17.802;2023-06-04T05:13:40;23.92;54.93
74792;SHT30;63319;46.046;17.802;2023-06-04T05:16:47;23.94;54.74
74792;SHT30;63319;46.046;17.802;2023-06-04T05:19:52;23.94;53.90
74792;SHT30;63319;46.046;17.802;2023-06-04T05:22:56;24.00;54.19
74792;SHT30;63319;46.046;17.802;2023-06-04T05:25:59;24.02;55.13
74792;SHT30;63319;46.046;17.802;2023-06-04T05:29:02;24.04;55.05
74792;SHT30;63319;46.046;17.802;2023-06-04T05:32:10;24.04;55.52
74792;SHT30;63319;46.046;17.802;2023-06-04T05:35:14;24.10;55.28
74792;SHT30;63319;46.046;17.802;2023-06-04T05:38:18;24.12;55.00
74792;SHT30;63319;46.046;17.802;2023-06-04T05:41:22;24.13;55.31
74792;SHT30;63319;46.046;17.802;2023-06-04T05:44:26;24.21;54.64
74792;SHT30;63319;46.046;17.802;2023-06-04T05:47:29;24.21;53.71
74792;SHT30;63319;46.046;17.802;2023-06-04T05:50:33;24.23;50.95
74792;SHT30;63319;46.046;17.802;2023-06-04T05:53:36;24.25;53.49
74792;SHT30;63319;46.046;17.802;2023-06-04T05:56:39;24.27;52.57
74792;SHT30;63319;46.046;17.802;2023-06-04T05:59:42;24.33;54.19
74792;SHT30;63319;46.046;17.802;2023-06-04T06:02:52;24.30;53.22
74792;SHT30;63319;46.046;17.802;2023-06-04T06:06:14;24.35;50.68
74792;SHT30;63319;46.046;17.802;2023-06-04T06:09:16;24.38;51.41
74792;SHT30;63319;46.046;17.802;2023-06-04T06:12:20;24.41;52.72
74792;SHT30;63319;46.046;17.802;2023-06-04T06:15:22;24.44;52.13
74792;SHT30;63319;46.046;17.802;2023-06-04T06:18:27;24.44;52.16
74792;SHT30;63319;46.046;17.802;2023-06-04T06:21:35;24.50;51.29
74792;SHT30;63319;46.046;17.802;2023-06-04T06:24:39;24.50;51.11
74792;SHT30;63319;46.046;17.802;2023-06-04T06:27:42;24.51;50.92
74792;SHT30;63319;46.046;17.802;2023-06-04T06:30:47;24.55;52.03
74792;SHT30;63319;46.046;17.802;2023-06-04T06:33:50;24.61;50.83
74792;SHT30;63319;46.046;17.802;2023-06-04T06:36:53;24.65;51.01
74792;SHT30;63319;46.046;17.802;2023-06-04T06:39:55;24.68;49.18
74792;SHT30;63319;46.046;17.802;2023-06-04T06:42:58;24.72;49.93
74792;SHT30;63319;46.046;17.802;2023-06-04T06:46:01;24.78;50.76
74792;SHT30;63319;46.046;17.802;2023-06-04T06:49:04;24.76;50.12
74792;SHT30;63319;46.046;17.802;2023-06-04T06:52:07;24.81;49.92
74792;SHT30;63319;46.046;17.802;2023-06-04T06:55:09;24.85;48.66
74792;SHT30;63319;46.046;17.802;2023-06-04T06:58:12;24.92;48.29
74792;SHT30;63319;46.046;17.802;2023-06-04T07:01:15;24.98;47.72
74792;SHT30;63319;46.046;17.802;2023-06-04T07:04:18;24.98;47.68
74792;SHT30;63319;46.046;17.802;2023-06-04T07:07:21;24.98;48.25
74792;SHT30;63319;46.046;17.802;2023-06-04T07:10:24;25.03;49.07
74792;SHT30;63319;46.046;17.802;2023-06-04T07:13:27;25.10;48.61
74792;SHT30;63319;46.046;17.802;2023-06-04T07:16:30;25.16;50.64
74792;SHT30;63319;46.046;17.802;2023-06-04T07:19:33;25.23;52.42
74792;SHT30;63319;46.046;17.802;2023-06-04T07:22:36;25.26;49.58
74792;SHT30;63319;46.046;17.802;2023-06-04T07:25:38;25.31;48.29
74792;SHT30;63319;46.046;17.802;2023-06-04T07:28:41;25.36;48.89
74792;SHT30;63319;46.046;17.802;2023-06-04T07:31:44;25.43;47.72
74792;SHT30;63319;46.046;17.802;2023-06-04T07:34:48;25.50;49.64
74792;SHT30;63319;46.046;17.802;2023-06-04T07:37:50;25.58;48.89
74792;SHT30;63319;46.046;17.802;2023-06-04T07:40:53;25.63;48.97
74792;SHT30;63319;46.046;17.802;2023-06-04T07:43:56;25.73;50.45
74792;SHT30;63319;46.046;17.802;2023-06-04T07:46:59;25.78;51.28
74792;SHT30;63319;46.046;17.802;2023-06-04T07:50:02;25.85;51.50
74792;SHT30;63319;46.046;17.802;2023-06-04T07:53:05;25.98;51.67
74792;SHT30;63319;46.046;17.802;2023-06-04T07:56:08;26.01;51.31
74792;SHT30;63319;46.046;17.802;2023-06-04T07:59:11;25.98;51.10
74792;SHT30;63319;46.046;17.802;2023-06-04T08:02:14;26.02;51.01
74792;SHT30;63319;46.046;17.802;2023-06-04T08:05:17;26.06;51.30
74792;SHT30;63319;46.046;17.802;2023-06-04T08:08:20;26.21;50.99
74792;SHT30;63319;46.046;17.802;2023-06-04T08:11:26;26.24;50.91
74792;SHT30;63319;46.046;17.802;2023-06-04T08:14:36;26.15;51.04
74792;SHT30;63319;46.046;17.802;2023-06-04T08:17:39;26.18;50.88
74792;SHT30;63319;46.046;17.802;2023-06-04T08:20:41;26.16;51.18
74792;SHT30;63319;46.046;17.802;2023-06-04T08:23:44;26.24;50.94
74792;SHT30;63319;46.046;17.802;2023-06-04T08:26:47;26.29;50.80
74792;SHT30;63319;46.046;17.802;2023-06-04T08:29:50;26.33;50.63
74792;SHT30;63319;46.046;17.802;2023-06-04T08:32:54;26.52;50.25
74792;SHT30;63319;46.046;17.802;2023-06-04T08:35:57;26.63;49.76
74792;SHT30;63319;46.046;17.802;2023-06-04T08:39:00;26.81;49.49
74792;SHT30;63319;46.046;17.802;2023-06-04T08:42:05;26.97;49.12
74792;SHT30;63319;46.046;17.802;2023-06-04T08:45:11;27.18;48.66
74792;SHT30;63319;46.046;17.802;2023-06-04T08:48:21;27.34;48.22
74792;SHT30;63319;46.046;17.802;2023-06-04T08:51:25;27.53;47.96
74792;SHT30;63319;46.046;17.802;2023-06-04T08:54:29;27.79;47.28
74792;SHT30;63319;46.046;17.802;2023-06-04T08:57:32;27.94;46.89
74792;SHT30;63319;46.046;17.802;2023-06-04T09:00:35;27.98;46.77
74792;SHT30;63319;46.046;17.802;2023-06-04T09:03:38;27.98;46.76
74792;SHT30;63319;46.046;17.802;2023-06-04T09:06:42;28.13;46.55
74792;SHT30;63319;46.046;17.802;2023-06-04T09:09:46;28.11;46.57
74792;SHT30;63319;46.046;17.802;2023-06-04T09:13:02;28.18;46.31
74792;SHT30;63319;46.046;17.802;2023-06-04T09:16:09;28.34;46.05
74792;SHT30;63319;46.046;17.802;2023-06-04T09:19:12;28.43;45.93
74792;SHT30;63319;46.046;17.802;2023-06-04T09:22:15;28.54;45.78
74792;SHT30;63319;46.046;17.802;2023-06-04T09:25:25;28.65;45.47
74792;SHT30;63319;46.046;17.802;2023-06-04T09:28:29;28.75;45.19
74792;SHT30;63319;46.046;17.802;2023-06-04T09:31:34;28.79;45.13
74792;SHT30;63319;46.046;17.802;2023-06-04T09:34:39;28.85;45.15
74792;SHT30;63319;46.046;17.802;2023-06-04T09:37:56;28.91;44.95
74792;SHT30;63319;46.046;17.802;2023-06-04T09:41:02;29.09;44.81
74792;SHT30;63319;46.046;17.802;2023-06-04T09:44:08;29.26;44.40
74792;SHT30;63319;46.046;17.802;2023-06-04T09:47:13;29.34;44.26
74792;SHT30;63319;46.046;17.802;2023-06-04T09:50:25;29.41;44.10
74792;SHT30;63319;46.046;17.802;2023-06-04T09:53:27;29.41;44.11
74792;SHT30;63319;46.046;17.802;2023-06-04T09:56:42;29.50;43.98
74792;SHT30;63319;46.046;17.802;2023-06-04T09:59:48;29.46;43.91
74792;SHT30;63319;46.046;17.802;2023-06-04T10:02:56;29.46;43.98
74792;SHT30;63319;46.046;17.802;2023-06-04T10:06:03;29.40;44.16
74792;SHT30;63319;46.046;17.802;2023-06-04T10:09:07;29.34;44.27
74792;SHT30;63319;46.046;17.802;2023-06-04T10:12:10;29.31;44.28
74792;SHT30;63319;46.046;17.802;2023-06-04T10:15:13;29.35;44.18
74792;SHT30;63319;46.046;17.802;2023-06-04T10:18:16;29.33;44.15
74792;SHT30;63319;46.046;17.802;2023-06-04T10:21:20;29.31;44.34
74792;SHT30;63319;46.046;17.802;2023-06-04T10:24:23;29.16;44.40
74792;SHT30;63319;46.046;17.802;2023-06-04T10:27:31;29.22;44.45
74792;SHT30;63319;46.046;17.802;2023-06-04T10:30:34;29.16;44.42
74792;SHT30;63319;46.046;17.802;2023-06-04T10:33:37;29.16;44.52
74792;SHT30;63319;46.046;17.802;2023-06-04T10:36:44;29.19;44.52
74792;SHT30;63319;46.046;17.802;2023-06-04T10:39:55;29.26;44.37
74792;SHT30;63319;46.046;17.802;2023-06-04T10:43:06;29.26;44.39
74792;SHT30;63319;46.046;17.802;2023-06-04T10:46:13;29.23;44.39
74792;SHT30;63319;46.046;17.802;2023-06-04T10:49:28;29.16;44.56
74792;SHT30;63319;46.046;17.802;2023-06-04T10:52:32;29.23;44.35
74792;SHT30;63319;46.046;17.802;2023-06-04T10:55:43;29.24;44.39
74792;SHT30;63319;46.046;17.802;2023-06-04T10:58:47;29.31;44.31
74792;SHT30;63319;46.046;17.802;2023-06-04T11:01:49;29.29;44.30
74792;SHT30;63319;46.046;17.802;2023-06-04T11:05:02;29.27;44.28
74792;SHT30;63319;46.046;17.802;2023-06-04T11:08:08;29.34;44.26
74792;SHT30;63319;46.046;17.802;2023-06-04T11:11:21;29.38;44.15
74792;SHT30;63319;46.046;17.802;2023-06-04T11:14:39;29.33;44.14
74792;SHT30;63319;46.046;17.802;2023-06-04T11:17:50;29.41;44.19
74792;SHT30;63319;46.046;17.802;2023-06-04T11:21:00;29.33;44.22
74792;SHT30;63319;46.046;17.802;2023-06-04T11:24:06;29.24;44.55
74792;SHT30;63319;46.046;17.802;2023-06-04T11:27:09;29.16;44.46
74792;SHT30;63319;46.046;17.802;2023-06-04T11:30:22;29.02;44.75
74792;SHT30;63319;46.046;17.802;2023-06-04T11:33:25;28.92;45.09
74792;SHT30;63319;46.046;17.802;2023-06-04T11:36:29;28.92;45.04
74792;SHT30;63319;46.046;17.802;2023-06-04T11:39:35;28.89;45.39
74792;SHT30;63319;46.046;17.802;2023-06-04T11:42:40;28.76;45.36
74792;SHT30;63319;46.046;17.802;2023-06-04T11:45:46;28.61;45.68
74792;SHT30;63319;46.046;17.802;2023-06-04T11:48:51;28.49;45.92
74792;SHT30;63319;46.046;17.802;2023-06-04T11:51:55;28.31;46.29
74792;SHT30;63319;46.046;17.802;2023-06-04T11:54:58;28.18;46.56
74792;SHT30;63319;46.046;17.802;2023-06-04T11:58:00;28.03;47.01
74792;SHT30;63319;46.046;17.802;2023-06-04T12:01:04;28.03;46.96
74792;SHT30;63319;46.046;17.802;2023-06-04T12:04:17;28.00;47.24
74792;SHT30;63319;46.046;17.802;2023-06-04T12:07:21;27.93;47.19
74792;SHT30;63319;46.046;17.802;2023-06-04T12:10:26;27.87;47.32
74792;SHT30;63319;46.046;17.802;2023-06-04T12:13:37;27.86;47.35
74792;SHT30;63319;46.046;17.802;2023-06-04T12:16:40;27.77;47.65
74792;SHT30;63319;46.046;17.802;2023-06-04T12:19:47;27.69;48.01
74792;SHT30;63319;46.046;17.802;2023-06-04T12:22:53;27.65;48.00
74792;SHT30;63319;46.046;17.802;2023-06-04T12:25:56;27.63;47.99
74792;SHT30;63319;46.046;17.802;2023-06-04T12:29:02;27.58;48.07
74792;SHT30;63319;46.046;17.802;2023-06-04T12:32:09;27.53;48.13
74792;SHT30;63319;46.046;17.802;2023-06-04T12:35:15;27.46;48.39
74792;SHT30;63319;46.046;17.802;2023-06-04T12:38:20;27.45;48.41
74792;SHT30;63319;46.046;17.802;2023-06-04T12:41:23;27.34;48.66
74792;SHT30;63319;46.046;17.802;2023-06-04T12:44:26;27.32;48.82
74792;SHT30;63319;46.046;17.802;2023-06-04T12:47:29;27.31;48.75
74792;SHT30;63319;46.046;17.802;2023-06-04T12:50:32;27.27;48.96
74792;SHT30;63319;46.046;17.802;2023-06-04T12:53:34;27.28;49.02
74792;SHT30;63319;46.046;17.802;2023-06-04T12:56:38;27.24;48.97
74792;SHT30;63319;46.046;17.802;2023-06-04T12:59:41;27.16;49.14
74792;SHT30;63319;46.046;17.802;2023-06-04T13:02:44;27.16;49.20
74792;SHT30;63319;46.046;17.802;2023-06-04T13:05:50;27.20;49.06
74792;SHT30;63319;46.046;17.802;2023-06-04T13:08:58;27.12;49.16
74792;SHT30;63319;46.046;17.802;2023-06-04T13:12:01;27.12;49.16
74792;SHT30;63319;46.046;17.802;2023-06-04T13:15:04;27.14;49.21
74792;SHT30;63319;46.046;17.802;2023-06-04T13:18:08;27.01;49.44
74792;SHT30;63319;46.046;17.802;2023-06-04T13:21:12;27.05;49.43
74792;SHT30;63319;46.046;17.802;2023-06-04T13:24:15;27.00;49.43
74792;SHT30;63319;46.046;17.802;2023-06-04T13:27:18;26.97;49.47
74792;SHT30;63319;46.046;17.802;2023-06-04T13:30:21;26.97;49.89
74792;SHT30;63319;46.046;17.802;2023-06-04T13:33:24;26.93;49.80
74792;SHT30;63319;46.046;17.802;2023-06-04T13:36:27;26.88;49.68
74792;SHT30;63319;46.046;17.802;2023-06-04T13:39:30;26.91;49.85
74792;SHT30;63319;46.046;17.802;2023-06-04T13:42:33;26.81;49.99
74792;SHT30;63319;46.046;17.802;2023-06-04T13:45:36;26.80;50.05
74792;SHT30;63319;46.046;17.802;2023-06-04T13:48:39;26.76;50.14
74792;SHT30;63319;46.046;17.802;2023-06-04T13:51:41;26.74;50.18
74792;SHT30;63319;46.046;17.802;2023-06-04T13:54:44;26.72;50.24
74792;SHT30;63319;46.046;17.802;2023-06-04T13:57:47;26.65;50.34
74792;SHT30;63319;46.046;17.802;2023-06-04T14:00:50;26.61;50.39
74792;SHT30;63319;46.046;17.802;2023-06-04T14:03:53;26.63;50.46
74792;SHT30;63319;46.046;17.802;2023-06-04T14:06:56;26.56;50.53
74792;SHT30;63319;46.046;17.802;2023-06-04T14:09:59;26.54;50.55
74792;SHT30;63319;46.046;17.802;2023-06-04T14:13:03;26.53;50.63
74792;SHT30;63319;46.046;17.802;2023-06-04T14:16:05;26.52;50.73
74792;SHT30;63319;46.046;17.802;2023-06-04T14:19:08;26.52;50.63
74792;SHT30;63319;46.046;17.802;2023-06-04T14:22:11;26.49;50.68
74792;SHT30;63319;46.046;17.802;2023-06-04T14:25:16;26.49;50.72
74792;SHT30;63319;46.046;17.802;2023-06-04T14:28:19;26.44;50.80
74792;SHT30;63319;46.046;17.802;2023-06-04T14:31:23;26.42;50.87
74792;SHT30;63319;46.046;17.802;2023-06-04T14:34:26;26.44;50.76
74792;SHT30;63319;46.046;17.802;2023-06-04T14:37:29;26.43;50.89
74792;SHT30;63319;46.046;17.802;2023-06-04T14:40:31;26.40;50.97
74792;SHT30;63319;46.046;17.802;2023-06-04T14:43:38;26.35;51.02
74792;SHT30;63319;46.046;17.802;2023-06-04T14:46:40;26.36;51.08
74792;SHT30;63319;46.046;17.802;2023-06-04T14:49:43;26.36;51.13
74792;SHT30;63319;46.046;17.802;2023-06-04T14:52:46;26.39;51.01
74792;SHT30;63319;46.046;17.802;2023-06-04T14:55:49;26.36;51.08
74792;SHT30;63319;46.046;17.802;2023-06-04T14:58:52;26.36;51.04
74792;SHT30;63319;46.046;17.802;2023-06-04T15:01:55;26.32;51.10
74792;SHT30;63319;46.046;17.802;2023-06-04T15:04:58;26.29;51.18
74792;SHT30;63319;46.046;17.802;2023-06-04T15:08:02;26.24;51.32
74792;SHT30;63319;46.046;17.802;2023-06-04T15:11:05;26.26;51.27
74792;SHT30;63319;46.046;17.802;2023-06-04T15:14:09;26.26;51.21
74792;SHT30;63319;46.046;17.802;2023-06-04T15:17:11;26.29;51.24
74792;SHT30;63319;46.046;17.802;2023-06-04T15:20:14;26.28;51.28
74792;SHT30;63319;46.046;17.802;2023-06-04T15:23:17;26.26;51.29
74792;SHT30;63319;46.046;17.802;2023-06-04T15:26:21;26.29;51.32
74792;SHT30;63319;46.046;17.802;2023-06-04T15:29:24;26.26;51.32
74792;SHT30;63319;46.046;17.802;2023-06-04T15:32:27;26.28;51.37
74792;SHT30;63319;46.046;17.802;2023-06-04T15:35:30;26.22;51.46
74792;SHT30;63319;46.046;17.802;2023-06-04T15:38:33;26.22;51.38
74792;SHT30;63319;46.046;17.802;2023-06-04T15:41:36;26.22;51.43
74792;SHT30;63319;46.046;17.802;2023-06-04T15:44:39;26.19;51.52
74792;SHT30;63319;46.046;17.802;2023-06-04T15:47:41;26.19;51.48
74792;SHT30;63319;46.046;17.802;2023-06-04T15:50:44;26.21;51.51
74792;SHT30;63319;46.046;17.802;2023-06-04T15:53:47;26.16;51.53
74792;SHT30;63319;46.046;17.802;2023-06-04T15:56:50;26.16;51.61
74792;SHT30;63319;46.046;17.802;2023-06-04T15:59:52;26.14;51.57
74792;SHT30;63319;46.046;17.802;2023-06-04T16:02:55;26.14;51.62
74792;SHT30;63319;46.046;17.802;2023-06-04T16:05:58;26.09;51.70
74792;SHT30;63319;46.046;17.802;2023-06-04T16:09:01;26.11;51.71
74792;SHT30;63319;46.046;17.802;2023-06-04T16:12:05;26.08;51.80
74792;SHT30;63319;46.046;17.802;2023-06-04T16:15:08;26.05;51.84
74792;SHT30;63319;46.046;17.802;2023-06-04T16:18:11;26.04;51.83
74792;SHT30;63319;46.046;17.802;2023-06-04T16:21:14;26.04;51.82
74792;SHT30;63319;46.046;17.802;2023-06-04T16:24:17;26.01;51.94
74792;SHT30;63319;46.046;17.802;2023-06-04T16:27:20;26.04;51.89
74792;SHT30;63319;46.046;17.802;2023-06-04T16:30:22;25.98;51.95
74792;SHT30;63319;46.046;17.802;2023-06-04T16:33:28;25.96;51.99
74792;SHT30;63319;46.046;17.802;2023-06-04T16:36:31;25.94;52.13
74792;SHT30;63319;46.046;17.802;2023-06-04T16:39:35;25.94;52.15
74792;SHT30;63319;46.046;17.802;2023-06-04T16:42:38;25.95;52.09
74792;SHT30;63319;46.046;17.802;2023-06-04T16:45:41;25.89;52.14
74792;SHT30;63319;46.046;17.802;2023-06-04T16:48:44;25.88;52.22
74792;SHT30;63319;46.046;17.802;2023-06-04T16:51:47;25.89;52.16
74792;SHT30;63319;46.046;17.802;2023-06-04T16:54:50;25.85;52.36
74792;SHT30;63319;46.046;17.802;2023-06-04T16:57:52;25.85;52.38
74792;SHT30;63319;46.046;17.802;2023-06-04T17:00:55;25.85;52.35
74792;SHT30;63319;46.046;17.802;2023-06-04T17:03:58;25.82;52.47
74792;SHT30;63319;46.046;17.802;2023-06-04T17:07:01;25.82;52.42
74792;SHT30;63319;46.046;17.802;2023-06-04T17:10:04;25.80;52.55
74792;SHT30;63319;46.046;17.802;2023-06-04T17:13:07;25.81;52.55
74792;SHT30;63319;46.046;17.802;2023-06-04T17:16:10;25.80;52.55
74792;SHT30;63319;46.046;17.802;2023-06-04T17:19:14;25.75;52.53
74792;SHT30;63319;46.046;17.802;2023-06-04T17:22:17;25.75;52.58
74792;SHT30;63319;46.046;17.802;2023-06-04T17:25:20;25.73;52.69
74792;SHT30;63319;46.046;17.802;2023-06-04T17:28:23;25.71;52.69
74792;SHT30;63319;46.046;17.802;2023-06-04T17:31:26;25.73;52.75
74792;SHT30;63319;46.046;17.802;2023-06-04T17:34:29;25.70;52.71
74792;SHT30;63319;46.046;17.802;2023-06-04T17:37:32;25.68;52.87
74792;SHT30;63319;46.046;17.802;2023-06-04T17:40:36;25.67;52.86
74792;SHT30;63319;46.046;17.802;2023-06-04T17:43:39;25.66;52.87
74792;SHT30;63319;46.046;17.802;2023-06-04T17:46:43;25.64;52.95
74792;SHT30;63319;46.046;17.802;2023-06-04T17:49:46;25.64;52.95
74792;SHT30;63319;46.046;17.802;2023-06-04T17:52:49;25.64;52.98
74792;SHT30;63319;46.046;17.802;2023-06-04T17:55:54;25.63;53.00
74792;SHT30;63319;46.046;17.802;2023-06-04T17:58:57;25.60;53.07
74792;SHT30;63319;46.046;17.802;2023-06-04T18:02:01;25.60;53.12
74792;SHT30;63319;46.046;17.802;2023-06-04T18:05:05;25.58;53.14
74792;SHT30;63319;46.046;17.802;2023-06-04T18:08:09;25.56;53.18
74792;SHT30;63319;46.046;17.802;2023-06-04T18:11:13;25.57;53.08
74792;SHT30;63319;46.046;17.802;2023-06-04T18:14:17;25.56;53.23
74792;SHT30;63319;46.046;17.802;2023-06-04T18:17:21;25.51;53.22
74792;SHT30;63319;46.046;17.802;2023-06-04T18:20:24;25.56;53.24
74792;SHT30;63319;46.046;17.802;2023-06-04T18:23:29;25.56;53.29
74792;SHT30;63319;46.046;17.802;2023-06-04T18:26:33;25.50;53.28
74792;SHT30;63319;46.046;17.802;2023-06-04T18:29:37;25.48;53.26
74792;SHT30;63319;46.046;17.802;2023-06-04T18:32:41;25.48;53.39
74792;SHT30;63319;46.046;17.802;2023-06-04T18:35:48;25.48;53.39
74792;SHT30;63319;46.046;17.802;2023-06-04T18:38:51;25.47;53.39
74792;SHT30;63319;46.046;17.802;2023-06-04T18:41:55;25.48;53.37
74792;SHT30;63319;46.046;17.802;2023-06-04T18:45:00;25.46;53.34
74792;SHT30;63319;46.046;17.802;2023-06-04T18:48:06;25.44;53.37
74792;SHT30;63319;46.046;17.802;2023-06-04T18:51:12;25.44;53.43
74792;SHT30;63319;46.046;17.802;2023-06-04T18:54:16;25.43;53.46
74792;SHT30;63319;46.046;17.802;2023-06-04T18:57:21;25.44;53.37
74792;SHT30;63319;46.046;17.802;2023-06-04T19:00:25;25.43;53.41
74792;SHT30;63319;46.046;17.802;2023-06-04T19:03:30;25.39;53.42
74792;SHT30;63319;46.046;17.802;2023-06-04T19:06:34;25.40;53.52
74792;SHT30;63319;46.046;17.802;2023-06-04T19:09:38;25.40;53.46
74792;SHT30;63319;46.046;17.802;2023-06-04T19:12:44;25.41;53.51